createdAt,value
2019-04-03T00:01:46.389Z,32.60
2019-04-03T00:04:15.284Z,36.30
2019-04-03T00:06:44.071Z,39.30
2019-04-03T00:09:12.817Z,38.67
2019-04-03T00:11:41.614Z,34.37
2019-04-03T00:14:12.212Z,36.68
2019-04-03T00:16:40.897Z,37.80
2019-04-03T00:19:09.741Z,33.45
2019-04-03T00:21:38.493Z,38.73
2019-04-03T00:24:07.277Z,37.53
2019-04-03T00:26:36.103Z,38.13
2019-04-03T00:29:04.944Z,36.17
2019-04-03T00:31:33.824Z,36.27
2019-04-03T00:34:02.545Z,40.13
2019-04-03T00:36:31.319Z,35.43
2019-04-03T00:39:00.104Z,40.40
2019-04-03T00:41:28.865Z,30.27
2019-04-03T00:43:57.614Z,47.13
2019-04-03T00:46:26.358Z,39.50
2019-04-03T00:48:55.868Z,40.03
2019-04-03T00:51:27.343Z,40.77
2019-04-03T00:53:57.977Z,41.90
2019-04-03T00:56:26.845Z,40.77
2019-04-03T00:58:56.034Z,44.67
2019-04-03T01:01:26.524Z,43.17
2019-04-03T01:03:55.274Z,41.23
2019-04-03T01:06:24.030Z,45.05
2019-04-03T01:08:52.768Z,46.23
2019-04-03T01:11:21.563Z,46.20
2019-04-03T01:13:50.328Z,39.45
2019-04-03T01:16:19.110Z,29.95
2019-04-03T01:18:47.858Z,30.00
2019-04-03T01:21:16.593Z,25.30
2019-04-03T01:23:45.461Z,38.73
2019-04-03T01:26:14.198Z,35.23
2019-04-03T01:28:42.935Z,31.03
2019-04-03T01:31:14.220Z,28.12
2019-04-03T01:33:42.678Z,21.33
2019-04-03T01:36:12.428Z,32.35
2019-04-03T01:38:41.177Z,35.47
2019-04-03T01:41:09.988Z,37.17
2019-04-03T01:43:39.739Z,34.30
2019-04-03T01:46:08.499Z,31.53
2019-04-03T01:48:37.290Z,32.73
2019-04-03T01:51:06.014Z,34.87
2019-04-03T01:53:34.761Z,34.77
2019-04-03T01:56:05.135Z,37.13
2019-04-03T01:58:35.985Z,43.60
2019-04-03T02:01:08.111Z,37.77
2019-04-03T02:03:37.164Z,36.57
2019-04-03T02:06:05.936Z,37.07
2019-04-03T02:08:34.701Z,43.73
2019-04-03T02:11:03.508Z,50.27
2019-04-03T02:13:32.246Z,50.10
2019-04-03T02:16:01.085Z,50.90
2019-04-03T02:18:29.848Z,51.40
2019-04-03T02:20:58.688Z,54.10
2019-04-03T02:23:28.833Z,48.43
2019-04-03T02:25:57.935Z,51.80
2019-04-03T02:28:26.676Z,51.80
2019-04-03T02:30:55.717Z,46.63
2019-04-03T02:33:28.312Z,41.40
2019-04-03T02:35:54.966Z,41.93
2019-04-03T02:38:23.933Z,42.00
2019-04-03T02:40:52.721Z,50.17
2019-04-03T02:43:21.516Z,46.13
2019-04-03T02:45:50.361Z,45.47
2019-04-03T02:48:19.348Z,42.88
2019-04-03T02:50:48.588Z,45.30
2019-04-03T02:53:18.059Z,50.30
2019-04-03T02:55:46.832Z,50.90
2019-04-03T02:58:15.614Z,31.20
2019-04-03T03:00:44.541Z,46.87
2019-04-03T03:03:16.115Z,42.03
2019-04-03T03:05:43.764Z,39.93
2019-04-03T03:08:12.702Z,33.70
2019-04-03T03:10:41.529Z,37.20
2019-04-03T03:13:11.890Z,30.87
2019-04-03T03:15:43.895Z,27.90
2019-04-03T03:18:12.696Z,27.67
2019-04-03T03:20:42.497Z,29.80
2019-04-03T03:23:11.971Z,30.25
2019-04-03T03:25:41.272Z,25.37
2019-04-03T03:28:13.187Z,23.00
2019-04-03T03:30:50.673Z,27.20
2019-04-03T03:33:26.516Z,31.03
2019-04-03T03:35:46.856Z,27.37
2019-04-03T03:38:14.273Z,23.17
2019-04-03T03:40:47.256Z,20.03
2019-04-03T03:43:14.396Z,26.03
2019-04-03T03:45:44.769Z,29.52
2019-04-03T03:48:13.597Z,29.63
2019-04-03T03:50:43.889Z,23.80
2019-04-03T03:53:13.364Z,21.40
2019-04-03T03:55:43.709Z,25.00
2019-04-03T03:58:13.469Z,24.27
2019-04-03T04:00:42.948Z,26.17
2019-04-03T04:03:12.055Z,26.97
2019-04-03T04:05:41.829Z,27.42
2019-04-03T04:08:11.612Z,25.08
2019-04-03T04:10:41.123Z,29.57
2019-04-03T04:13:13.348Z,23.33
2019-04-03T04:15:40.519Z,25.83
2019-04-03T04:18:13.803Z,25.50
2019-04-03T04:20:40.839Z,26.12
2019-04-03T04:23:09.624Z,24.52
2019-04-03T04:25:38.436Z,27.57
2019-04-03T04:28:09.169Z,25.72
2019-04-03T04:30:38.616Z,22.25
2019-04-03T04:33:07.396Z,26.40
2019-04-03T04:35:36.410Z,26.97
2019-04-03T04:38:05.467Z,26.50
2019-04-03T04:40:34.317Z,21.70
2019-04-03T04:43:04.165Z,27.17
2019-04-03T04:45:33.925Z,22.77
2019-04-03T04:48:02.689Z,22.55
2019-04-03T04:50:32.374Z,23.90
2019-04-03T04:53:01.251Z,21.60
2019-04-03T04:55:31.311Z,25.80
2019-04-03T04:58:00.490Z,25.53
2019-04-03T05:00:30.027Z,27.47
2019-04-03T05:03:01.773Z,23.73
2019-04-03T05:05:31.152Z,21.13
2019-04-03T05:08:02.202Z,22.43
2019-04-03T05:10:31.487Z,23.27
2019-04-03T05:13:00.424Z,26.00
2019-04-03T05:15:29.391Z,26.23
2019-04-03T05:17:58.382Z,21.82
2019-04-03T05:20:27.303Z,21.10
2019-04-03T05:22:56.221Z,25.92
2019-04-03T05:25:25.032Z,21.10
2019-04-03T05:27:53.778Z,26.63
2019-04-03T05:30:36.529Z,21.47
2019-04-03T05:33:05.220Z,22.67
2019-04-03T05:35:34.011Z,22.80
2019-04-03T05:38:02.791Z,20.27
2019-04-03T05:40:31.664Z,26.00
2019-04-03T05:43:00.652Z,22.80
2019-04-03T05:45:29.457Z,23.80
2019-04-03T05:47:58.234Z,26.63
2019-04-03T05:50:27.226Z,20.40
2019-04-03T05:52:56.012Z,24.02
2019-04-03T05:55:24.888Z,24.37
2019-04-03T05:57:53.638Z,23.20
2019-04-03T06:00:22.667Z,21.90
2019-04-03T06:02:53.134Z,19.43
2019-04-03T06:05:21.879Z,21.55
2019-04-03T06:07:50.642Z,19.37
2019-04-03T06:10:19.397Z,21.30
2019-04-03T06:12:48.138Z,18.23
2019-04-03T06:15:17.316Z,18.90
2019-04-03T06:17:46.140Z,17.48
2019-04-03T06:20:15.171Z,20.00
2019-04-03T06:22:43.919Z,20.55
2019-04-03T06:25:13.937Z,18.33
2019-04-03T06:27:45.832Z,19.73
2019-04-03T06:30:15.535Z,18.90
2019-04-03T06:32:44.457Z,21.90
2019-04-03T06:35:13.642Z,25.30
2019-04-03T06:37:43.095Z,18.87
2019-04-03T06:40:12.139Z,20.07
2019-04-03T06:42:42.422Z,19.50
2019-04-03T06:45:11.598Z,30.23
2019-04-03T06:47:40.576Z,23.83
2019-04-03T06:50:11.842Z,24.10
2019-04-03T06:52:39.867Z,23.10
2019-04-03T06:55:09.540Z,28.23
2019-04-03T06:57:39.502Z,22.30
2019-04-03T07:00:08.669Z,24.83
2019-04-03T07:02:37.435Z,27.57
2019-04-03T07:05:09.575Z,24.90
2019-04-03T07:07:38.323Z,26.93
2019-04-03T07:10:09.469Z,23.93
2019-04-03T07:12:38.123Z,26.17
2019-04-03T07:15:08.451Z,27.37
2019-04-03T07:17:37.204Z,29.47
2019-04-03T07:20:14.470Z,23.33
2019-04-03T07:22:38.149Z,20.35
2019-04-03T07:25:08.641Z,21.83
2019-04-03T07:27:38.312Z,21.70
2019-04-03T07:30:09.997Z,23.57
2019-04-03T07:32:39.688Z,17.93
2019-04-03T07:35:09.753Z,20.20
2019-04-03T07:37:38.899Z,19.03
2019-04-03T07:40:08.526Z,18.10
2019-04-03T07:42:37.294Z,19.20
2019-04-03T07:45:07.803Z,20.13
2019-04-03T07:47:36.673Z,20.00
2019-04-03T07:50:10.293Z,17.90
2019-04-03T07:52:38.481Z,16.37
2019-04-03T07:55:07.853Z,20.80
2019-04-03T07:57:37.237Z,18.43
2019-04-03T08:00:08.960Z,16.37
2019-04-03T08:02:38.458Z,18.37
2019-04-03T08:05:08.817Z,20.10
2019-04-03T08:07:37.567Z,16.47
2019-04-03T08:10:07.826Z,24.47
2019-04-03T08:12:36.642Z,16.17
2019-04-03T08:15:08.096Z,20.13
2019-04-03T08:17:37.073Z,19.82
2019-04-03T08:20:08.202Z,17.42
2019-04-03T08:22:37.036Z,10.20
2019-04-03T08:25:10.627Z,12.30
2019-04-03T08:27:38.735Z,6.43
2019-04-03T08:30:10.061Z,4.40
2019-04-03T08:32:38.784Z,3.70
2019-04-03T08:35:19.969Z,2.57
2019-04-03T08:37:40.610Z,1.60
2019-04-03T08:40:09.290Z,3.13
2019-04-03T08:42:38.036Z,3.70
2019-04-03T08:45:09.667Z,4.07
2019-04-03T08:47:38.595Z,5.43
2019-04-03T08:50:11.652Z,4.80
2019-04-03T08:52:40.899Z,2.20
2019-04-03T08:55:12.906Z,6.90
2019-04-03T08:57:41.001Z,3.57
2019-04-03T09:00:12.347Z,4.80
2019-04-03T09:02:43.520Z,4.70
2019-04-03T09:05:13.763Z,5.60
2019-04-03T09:07:42.215Z,5.50
2019-04-03T09:10:13.487Z,5.80
2019-04-03T09:12:42.244Z,6.63
2019-04-03T09:15:12.556Z,8.03
2019-04-03T09:17:41.314Z,7.60
2019-04-03T09:20:12.888Z,8.88
2019-04-03T09:22:40.996Z,6.40
2019-04-03T09:25:10.021Z,11.70
2019-04-03T09:27:40.354Z,8.53
2019-04-03T09:30:11.786Z,17.03
2019-04-03T09:32:40.596Z,5.80
2019-04-03T09:35:10.442Z,7.13
2019-04-03T09:37:39.191Z,8.10
2019-04-03T09:40:08.612Z,7.43
2019-04-03T09:42:37.382Z,5.83
2019-04-03T09:45:08.719Z,6.40
2019-04-03T09:47:37.488Z,8.17
2019-04-03T09:50:08.673Z,15.13
2019-04-03T09:52:42.093Z,9.70
2019-04-03T09:55:08.337Z,7.40
2019-04-03T09:57:37.142Z,7.00
2019-04-03T10:00:10.635Z,7.27
2019-04-03T10:02:39.437Z,11.43
2019-04-03T10:05:09.229Z,6.63
2019-04-03T10:07:38.305Z,10.20
2019-04-03T10:10:09.097Z,7.83
2019-04-03T10:12:38.039Z,9.87
2019-04-03T10:15:08.411Z,7.20
2019-04-03T10:17:38.532Z,6.67
2019-04-03T10:20:10.267Z,7.60
2019-04-03T10:22:38.991Z,8.70
2019-04-03T10:25:09.313Z,7.47
2019-04-03T10:27:38.061Z,8.60
2019-04-03T10:30:12.218Z,10.50
2019-04-03T10:32:41.442Z,7.20
2019-04-03T10:35:10.968Z,6.05
2019-04-03T10:37:47.667Z,8.60
2019-04-03T10:40:17.752Z,9.75
2019-04-03T10:42:47.225Z,10.70
2019-04-03T10:45:17.414Z,8.78
2019-04-03T10:47:46.135Z,8.43
2019-04-03T10:50:15.415Z,8.63
2019-04-03T10:52:46.193Z,6.70
2019-04-03T10:55:15.825Z,8.60
2019-04-03T10:57:44.634Z,9.73
2019-04-03T11:00:15.669Z,10.47
2019-04-03T11:02:44.428Z,10.13
2019-04-03T11:05:13.983Z,9.80
2019-04-03T11:07:42.838Z,9.30
2019-04-03T11:10:12.168Z,8.90
2019-04-03T11:12:41.221Z,10.33
2019-04-03T11:15:12.649Z,9.10
2019-04-03T11:17:41.989Z,12.50
2019-04-03T11:20:14.054Z,9.48
2019-04-03T11:22:43.943Z,10.23
2019-04-03T11:25:15.307Z,12.65
2019-04-03T11:27:45.143Z,11.37
2019-04-03T11:30:19.946Z,11.90
2019-04-03T11:32:47.142Z,13.30
2019-04-03T11:35:17.244Z,15.08
2019-04-03T11:37:46.023Z,12.70
2019-04-03T11:40:18.065Z,14.00
2019-04-03T11:42:47.786Z,13.70
2019-04-03T11:45:17.094Z,14.77
2019-04-03T11:47:46.448Z,13.03
2019-04-03T11:50:18.046Z,14.37
2019-04-03T11:52:47.096Z,12.47
2019-04-03T11:55:16.027Z,13.80
2019-04-03T11:57:47.419Z,13.53
2019-04-03T12:00:24.208Z,11.40
2019-04-03T12:02:53.293Z,13.70
2019-04-03T12:05:23.040Z,13.77
2019-04-03T12:07:51.786Z,15.17
2019-04-03T12:10:20.560Z,16.00
2019-04-03T12:12:49.302Z,13.10
2019-04-03T12:15:20.205Z,11.67
2019-04-03T12:17:48.768Z,13.30
2019-04-03T12:20:17.764Z,12.45
2019-04-03T12:22:46.539Z,13.73
2019-04-03T12:25:15.705Z,9.58
2019-04-03T12:27:46.042Z,9.57
2019-04-03T12:30:16.155Z,11.33
2019-04-03T12:32:48.627Z,9.50
2019-04-03T12:35:15.489Z,12.30
2019-04-03T12:37:44.549Z,11.87
2019-04-03T12:40:14.145Z,10.32
2019-04-03T12:42:43.224Z,12.77
2019-04-03T12:45:12.298Z,9.53
2019-04-03T12:47:43.572Z,12.63
2019-04-03T12:50:13.442Z,9.60
2019-04-03T12:52:44.760Z,10.60
2019-04-03T12:55:13.031Z,10.20
2019-04-03T12:57:41.883Z,10.87
2019-04-03T13:00:13.477Z,8.50
2019-04-03T13:02:42.555Z,10.40
2019-04-03T13:05:11.378Z,11.48
2019-04-03T13:07:40.376Z,7.80
2019-04-03T13:10:10.561Z,8.67
2019-04-03T13:12:39.435Z,11.67
2019-04-03T13:15:12.585Z,10.70
2019-04-03T13:17:43.808Z,11.47
2019-04-03T13:20:12.615Z,10.30
2019-04-03T13:22:42.609Z,9.23
2019-04-03T13:25:12.870Z,11.55
2019-04-03T13:27:42.274Z,10.60
2019-04-03T13:30:13.915Z,15.08
2019-04-03T13:32:43.073Z,12.60
2019-04-03T13:35:14.598Z,11.43
2019-04-03T13:37:43.197Z,9.70
2019-04-03T13:40:12.364Z,12.70
2019-04-03T13:42:41.257Z,17.53
2019-04-03T13:45:11.804Z,10.63
2019-04-03T13:47:42.809Z,14.60
2019-04-03T13:50:11.844Z,13.33
2019-04-03T13:52:43.952Z,14.33
2019-04-03T13:55:12.153Z,12.93
2019-04-03T13:57:41.582Z,13.90
2019-04-03T14:00:20.567Z,13.08
2019-04-03T14:02:44.979Z,13.93
2019-04-03T14:05:14.493Z,13.50
2019-04-03T14:07:43.862Z,12.67
2019-04-03T14:10:12.814Z,14.73
2019-04-03T14:12:44.263Z,16.07
2019-04-03T14:15:12.148Z,15.80
2019-04-03T14:17:53.787Z,14.90
2019-04-03T14:20:13.020Z,16.70
2019-04-03T14:22:41.975Z,13.37
2019-04-03T14:25:19.369Z,16.50
2019-04-03T14:27:41.799Z,14.87
2019-04-03T14:30:12.611Z,14.87
2019-04-03T14:32:44.293Z,15.63
2019-04-03T14:35:41.251Z,15.83
2019-04-03T14:37:42.737Z,19.20
2019-04-03T14:40:12.956Z,18.73
2019-04-03T14:42:42.200Z,18.12
2019-04-03T14:45:14.574Z,18.85
2019-04-03T14:47:42.208Z,18.63
2019-04-03T14:50:12.529Z,16.40
2019-04-03T14:52:49.655Z,17.73
2019-04-03T14:55:22.307Z,19.03
2019-04-03T14:57:50.314Z,17.57
2019-04-03T15:00:27.266Z,18.48
2019-04-03T15:02:50.612Z,17.20
2019-04-03T15:05:19.738Z,16.73
2019-04-03T15:07:50.549Z,17.13
2019-04-03T15:10:20.874Z,15.57
2019-04-03T15:12:49.985Z,16.27
2019-04-03T15:15:19.176Z,16.73
2019-04-03T15:17:48.154Z,18.37
2019-04-03T15:20:18.843Z,17.93
2019-04-03T15:22:48.354Z,21.83
2019-04-03T15:25:20.288Z,20.20
2019-04-03T15:27:48.822Z,22.63
2019-04-03T15:30:18.278Z,21.83
2019-04-03T15:32:50.155Z,20.10
2019-04-03T15:35:18.795Z,19.25
2019-04-03T15:37:48.308Z,19.33
2019-04-03T15:40:18.535Z,20.17
2019-04-03T15:42:47.538Z,18.73
2019-04-03T15:45:16.892Z,19.95
2019-04-03T15:47:47.264Z,18.27
2019-04-03T15:50:17.985Z,22.63
2019-04-03T15:52:49.299Z,17.17
2019-04-03T15:55:17.727Z,17.60
2019-04-03T15:57:46.739Z,17.60
2019-04-03T16:00:21.335Z,18.60
2019-04-03T16:02:50.546Z,18.17
2019-04-03T16:05:22.217Z,17.75
2019-04-03T16:07:51.613Z,16.53
2019-04-03T16:10:23.237Z,17.70
2019-04-03T16:12:51.433Z,16.07
2019-04-03T16:15:22.458Z,18.37
2019-04-03T16:17:50.772Z,16.97
2019-04-03T16:20:19.553Z,18.10
2019-04-03T16:22:48.318Z,20.57
2019-04-03T16:25:17.881Z,19.90
2019-04-03T16:27:47.542Z,19.00
2019-04-03T16:30:18.724Z,15.13
2019-04-03T16:32:47.459Z,18.73
2019-04-03T16:35:16.277Z,15.77
2019-04-03T16:37:45.267Z,16.27
2019-04-03T16:40:15.895Z,20.95
2019-04-03T16:42:47.495Z,21.13
2019-04-03T16:45:15.662Z,18.42
2019-04-03T16:47:45.251Z,18.00
2019-04-03T16:50:15.551Z,20.52
2019-04-03T16:52:46.782Z,18.67
2019-04-03T16:55:16.749Z,20.25
2019-04-03T16:57:46.303Z,17.00
2019-04-03T17:00:17.126Z,17.83
2019-04-03T17:02:46.201Z,18.77
2019-04-03T17:05:26.035Z,21.50
2019-04-03T17:07:55.654Z,17.27
2019-04-03T17:10:27.066Z,17.03
2019-04-03T17:12:56.411Z,20.73
2019-04-03T17:15:25.238Z,17.27
2019-04-03T17:17:54.118Z,21.90
2019-04-03T17:20:23.595Z,20.93
2019-04-03T17:22:53.688Z,21.17
2019-04-03T17:25:23.398Z,17.77
2019-04-03T17:27:58.080Z,17.10
2019-04-03T17:30:26.261Z,57.77
2019-04-03T17:32:56.448Z,20.60
2019-04-03T17:35:26.640Z,16.53
2019-04-03T17:37:58.911Z,18.13
2019-04-03T17:40:26.938Z,19.67
2019-04-03T17:42:55.745Z,17.13
2019-04-03T17:45:25.130Z,16.93
2019-04-03T17:48:02.067Z,21.57
2019-04-03T17:50:31.145Z,21.17
2019-04-03T17:53:13.707Z,19.50
2019-04-03T17:55:48.544Z,22.30
2019-04-03T17:58:20.686Z,21.60
2019-04-03T18:00:52.056Z,19.63
2019-04-03T18:03:22.468Z,21.20
2019-04-03T18:05:51.384Z,19.97
2019-04-03T18:08:20.177Z,18.10
2019-04-03T18:10:49.056Z,17.13
2019-04-03T18:13:17.868Z,18.70
2019-04-03T18:15:46.618Z,23.90
2019-04-03T18:18:15.370Z,17.63
2019-04-03T18:20:44.670Z,17.77
2019-04-03T18:23:13.980Z,22.25
2019-04-03T18:25:43.776Z,19.60
2019-04-03T18:28:15.999Z,19.03
2019-04-03T18:30:45.005Z,19.37
2019-04-03T18:33:16.611Z,21.40
2019-04-03T18:35:44.428Z,16.70
2019-04-03T18:38:13.390Z,19.02
2019-04-03T18:40:46.412Z,17.30
2019-04-03T18:43:15.185Z,19.40
2019-04-03T18:45:43.970Z,17.47
2019-04-03T18:48:12.709Z,13.53
2019-04-03T18:50:41.578Z,15.40
2019-04-03T18:53:10.406Z,12.47
2019-04-03T18:55:39.136Z,16.90
2019-04-03T18:58:08.192Z,17.37
2019-04-03T19:00:36.985Z,16.60
2019-04-03T19:03:06.059Z,17.60
2019-04-03T19:05:35.676Z,13.93
2019-04-03T19:08:13.128Z,16.00
2019-04-03T19:10:34.945Z,20.03
2019-04-03T19:13:03.722Z,14.37
2019-04-03T19:15:33.678Z,14.23
2019-04-03T19:18:18.047Z,13.40
2019-04-03T19:20:48.338Z,14.73
2019-04-03T19:23:33.423Z,17.53
2019-04-03T19:26:03.328Z,14.00
2019-04-03T19:28:34.329Z,19.67
2019-04-03T19:31:16.558Z,15.60
2019-04-03T19:33:46.363Z,15.90
2019-04-03T19:36:15.204Z,19.25
2019-04-03T19:38:44.431Z,17.30
2019-04-03T19:41:13.222Z,16.00
2019-04-03T19:43:41.960Z,17.37
2019-04-03T19:46:10.730Z,18.20
2019-04-03T19:48:39.457Z,18.13
2019-04-03T19:51:08.224Z,17.67
2019-04-03T19:53:36.962Z,18.73
2019-04-03T19:56:05.737Z,18.70
2019-04-03T19:58:34.469Z,18.80
2019-04-03T20:01:05.563Z,15.07
2019-04-03T20:03:35.748Z,17.50
2019-04-03T20:06:05.350Z,14.00
2019-04-03T20:08:34.751Z,18.10
2019-04-03T20:11:06.484Z,17.12
2019-04-03T20:13:36.073Z,18.48
2019-04-03T20:16:06.366Z,18.80
2019-04-03T20:18:35.296Z,20.40
2019-04-03T20:21:04.411Z,15.77
2019-04-03T20:23:33.288Z,19.97
2019-04-03T20:26:04.615Z,19.57
2019-04-03T20:28:33.732Z,21.67
2019-04-03T20:31:03.779Z,18.30
2019-04-03T20:33:33.427Z,19.50
2019-04-03T20:36:03.111Z,21.17
2019-04-03T20:38:32.863Z,22.10
2019-04-03T20:41:03.312Z,20.30
2019-04-03T20:43:32.172Z,23.20
2019-04-03T20:46:00.906Z,23.65
2019-04-03T20:48:29.647Z,23.47
2019-04-03T20:50:58.404Z,21.43
2019-04-03T20:53:28.168Z,25.53
2019-04-03T20:55:58.126Z,29.17
2019-04-03T20:58:27.469Z,28.63
2019-04-03T21:01:06.190Z,25.10
2019-04-03T21:03:26.685Z,25.40
2019-04-03T21:05:55.943Z,25.57
2019-04-03T21:08:26.581Z,29.10
2019-04-03T21:10:55.261Z,27.93
2019-04-03T21:13:24.014Z,29.90
2019-04-03T21:15:52.936Z,28.90
2019-04-03T21:18:21.694Z,32.90
2019-04-03T21:20:50.419Z,27.67
2019-04-03T21:23:19.208Z,29.90
2019-04-03T21:25:47.962Z,34.00
2019-04-03T21:28:16.710Z,32.30
2019-04-03T21:30:45.465Z,32.00
2019-04-03T21:33:17.056Z,32.80
2019-04-03T21:35:44.786Z,32.53
2019-04-03T21:38:13.529Z,32.20
2019-04-03T21:40:42.269Z,31.73
2019-04-03T21:43:11.075Z,30.37
2019-04-03T21:45:39.934Z,32.30
2019-04-03T21:48:11.920Z,37.75
2019-04-03T21:50:41.180Z,35.43
2019-04-03T21:53:10.839Z,33.78
2019-04-03T21:55:39.653Z,30.40
2019-04-03T21:58:08.821Z,31.87
2019-04-03T22:01:00.399Z,38.40
2019-04-03T22:03:29.162Z,32.47
2019-04-03T22:05:57.905Z,31.60
2019-04-03T22:08:29.074Z,36.40
2019-04-03T22:10:57.457Z,29.93
2019-04-03T22:13:26.193Z,30.17
2019-04-03T22:15:54.950Z,30.77
2019-04-03T22:18:24.262Z,30.73
2019-04-03T22:20:53.452Z,33.65
2019-04-03T22:23:22.195Z,29.80
2019-04-03T22:25:50.932Z,31.90
2019-04-03T22:28:35.010Z,28.87
2019-04-03T22:31:05.200Z,32.40
2019-04-03T22:33:34.105Z,34.53
2019-04-03T22:36:03.350Z,34.10
2019-04-03T22:38:36.979Z,29.90
2019-04-03T22:41:03.777Z,31.30
2019-04-03T22:43:32.525Z,32.07
2019-04-03T22:46:02.494Z,32.40
2019-04-03T22:48:31.244Z,35.50
2019-04-03T22:51:00.012Z,32.00
2019-04-03T22:53:28.750Z,30.60
2019-04-03T22:55:57.525Z,33.45
2019-04-03T22:58:26.308Z,30.63
2019-04-03T23:00:55.095Z,31.53
2019-04-03T23:03:23.845Z,33.70
2019-04-03T23:05:52.728Z,27.17
2019-04-03T23:08:22.766Z,28.50
2019-04-03T23:10:52.074Z,27.73
2019-04-03T23:13:20.844Z,30.02
2019-04-03T23:15:49.570Z,32.63
2019-04-03T23:18:18.343Z,28.40
2019-04-03T23:20:47.286Z,32.90
2019-04-03T23:23:16.283Z,32.80
2019-04-03T23:25:45.101Z,30.47
2019-04-03T23:28:13.836Z,34.30
2019-04-03T23:30:42.613Z,31.37
2019-04-03T23:33:11.402Z,32.40
2019-04-03T23:35:40.140Z,33.93
2019-04-03T23:38:08.888Z,39.73
2019-04-03T23:40:37.677Z,29.83
2019-04-03T23:43:08.694Z,34.85
2019-04-03T23:45:37.044Z,32.20
2019-04-03T23:48:05.779Z,32.67
2019-04-03T23:50:34.505Z,34.87
2019-04-03T23:53:03.283Z,38.20
2019-04-03T23:55:32.452Z,34.17
2019-04-03T23:58:01.190Z,35.67
